DUB weather

Public forecast

Using degrees Celsius for public forecast. Weather courtesy of forecast.io.

Current aviation weather report (METAR) for Dublin Airport

Retrieved 2020/08/14 23:30 UTC (3 seconds ago):

EIDW 142330Z VRB02KT CAVOK 13/12 Q1016 NOSIG

Aviation forecast (TAF) for Dublin Airport

Retrieved 2020/08/14 18:11 UTC (5 hours ago):

TAF EIDW 141700Z 1418/1518 05007KT 9999 SCT015 PROB40 TEMPO 1423/1501 3000 BR SCT005